createdAt,value
2022-08-20T00:02:11.256Z,100892.13
2022-08-20T00:04:39.428Z,100894.50
2022-08-20T00:07:06.578Z,100898.56
2022-08-20T00:09:33.388Z,100893.88
2022-08-20T00:12:04.243Z,100908.47
2022-08-20T00:14:30.865Z,100901.50
2022-08-20T00:17:02.171Z,100907.22
2022-08-20T00:19:29.387Z,100910.84
2022-08-20T00:21:58.147Z,100900.06
2022-08-20T00:24:25.125Z,100895.38
2022-08-20T00:26:52.803Z,100893.47
2022-08-20T00:29:20.215Z,100903.88
2022-08-20T00:31:46.972Z,100897.72
2022-08-20T00:34:14.871Z,100906.22
2022-08-20T00:36:41.457Z,100908.56
2022-08-20T00:39:08.051Z,100902.00
2022-08-20T00:41:34.642Z,100905.81
2022-08-20T00:44:07.972Z,100911.31
2022-08-20T00:46:35.533Z,100907.75
2022-08-20T00:49:03.035Z,100905.00
2022-08-20T00:51:35.561Z,100905.00
2022-08-20T00:54:06.725Z,100906.91
2022-08-20T00:56:33.930Z,100902.44
2022-08-20T00:59:01.302Z,100909.66
2022-08-20T01:01:28.200Z,100906.03
2022-08-20T01:03:54.909Z,100909.66
2022-08-20T01:06:21.523Z,100912.16
2022-08-20T01:08:49.448Z,100916.81
2022-08-20T01:11:15.973Z,100915.16
2022-08-20T01:13:44.717Z,100916.00
2022-08-20T01:16:18.746Z,100923.16
2022-08-20T01:18:47.252Z,100923.16
2022-08-20T01:21:14.586Z,100928.47
2022-08-20T01:23:47.368Z,100929.09
2022-08-20T01:26:18.929Z,100925.25
2022-08-20T01:28:49.341Z,100919.53
2022-08-20T01:31:20.135Z,100924.00
2022-08-20T01:33:48.333Z,100923.16
2022-08-20T01:36:16.936Z,100921.44
2022-08-20T01:38:54.178Z,100932.47
2022-08-20T01:41:44.133Z,100926.50
2022-08-20T01:44:16.799Z,100925.44
2022-08-20T01:46:48.252Z,100928.19
2022-08-20T01:49:23.115Z,100924.38
2022-08-20T01:51:51.371Z,100924.38
2022-08-20T01:54:18.122Z,100926.09
2022-08-20T01:56:57.097Z,100921.19
2022-08-20T01:59:24.044Z,100923.94
2022-08-20T02:01:51.696Z,100922.25
2022-08-20T02:04:19.369Z,100928.84
2022-08-20T02:06:56.598Z,100928.00
2022-08-20T02:09:24.922Z,100931.81
2022-08-20T02:11:52.885Z,100930.09
2022-08-20T02:14:19.754Z,100925.44
2022-08-20T02:16:54.768Z,100923.16
2022-08-20T02:19:25.716Z,100925.25
2022-08-20T02:21:56.651Z,100926.56
2022-08-20T02:24:23.203Z,100938.44
2022-08-20T02:26:50.980Z,100932.91
2022-08-20T02:29:18.904Z,100936.53
2022-08-20T02:32:24.351Z,100944.53
2022-08-20T02:34:33.110Z,100943.69
2022-08-20T02:36:59.684Z,100942.88
2022-08-20T02:39:26.210Z,100939.28
2022-08-20T02:41:53.446Z,100943.94
2022-08-20T02:44:21.360Z,100946.69
2022-08-20T02:46:48.269Z,100936.72
2022-08-20T02:49:14.802Z,100944.34
2022-08-20T02:51:41.385Z,100950.09
2022-08-20T02:54:07.925Z,100952.00
2022-08-20T02:56:35.092Z,100953.69
2022-08-20T02:59:01.673Z,100957.31
2022-08-20T03:01:29.635Z,100949.66
2022-08-20T03:03:56.243Z,100948.78
2022-08-20T03:06:22.946Z,100946.03
2022-08-20T03:08:49.795Z,100940.53
2022-08-20T03:11:16.438Z,100935.03
2022-08-20T03:13:43.469Z,100941.38
2022-08-20T03:16:10.640Z,100938.03
2022-08-20T03:18:41.341Z,100936.09
2022-08-20T03:21:09.886Z,100929.78
2022-08-20T03:23:37.356Z,100932.53
2022-08-20T03:26:08.905Z,100933.34
2022-08-20T03:28:36.208Z,100928.91
2022-08-20T03:31:03.301Z,100931.66
2022-08-20T03:33:29.956Z,100924.47
2022-08-20T03:35:58.200Z,100922.78
2022-08-20T03:38:32.960Z,100912.81
2022-08-20T03:41:01.054Z,100907.31
2022-08-20T03:43:27.919Z,100912.81
2022-08-20T03:45:54.774Z,100913.91
2022-08-20T03:48:24.747Z,100912.22
2022-08-20T03:50:51.497Z,100917.72
2022-08-20T03:53:19.720Z,100920.69
2022-08-20T03:55:53.903Z,100920.06
2022-08-20T03:58:22.030Z,100920.28
2022-08-20T04:01:01.948Z,100918.59
2022-08-20T04:03:28.719Z,100921.34
2022-08-20T04:05:55.249Z,100918.81
2022-08-20T04:08:24.967Z,100919.88
2022-08-20T04:10:51.888Z,100929.19
2022-08-20T04:13:19.977Z,100929.41
2022-08-20T04:15:50.011Z,100936.41
2022-08-20T04:18:17.525Z,100936.59
2022-08-20T04:20:44.113Z,100931.09
2022-08-20T04:23:10.650Z,100945.72
2022-08-20T04:25:38.664Z,100952.06
2022-08-20T04:28:14.233Z,100951.00
2022-08-20T04:30:41.406Z,100958.41
2022-08-20T04:33:14.125Z,100956.50
2022-08-20T04:35:45.823Z,100957.56
2022-08-20T04:38:16.115Z,100954.81
2022-08-20T04:40:44.339Z,100960.31
2022-08-20T04:43:10.926Z,100959.69
2022-08-20T04:45:39.456Z,100964.38
2022-08-20T04:48:06.568Z,100966.28
2022-08-20T04:50:33.897Z,100965.19
2022-08-20T04:53:00.708Z,100969.03
2022-08-20T04:55:27.299Z,100963.06
2022-08-20T04:57:55.337Z,100968.56
2022-08-20T05:00:21.998Z,100959.69
2022-08-20T05:02:48.590Z,100954.19
2022-08-20T05:05:15.228Z,100961.59
2022-08-20T05:07:44.468Z,100960.75
2022-08-20T05:10:13.123Z,100963.50
2022-08-20T05:12:40.837Z,100952.09
2022-08-20T05:15:10.245Z,100963.31
2022-08-20T05:17:37.190Z,100967.34
2022-08-20T05:20:05.260Z,100972.66
2022-08-20T05:22:31.770Z,100970.50
2022-08-20T05:24:58.442Z,100971.16
2022-08-20T05:27:25.312Z,100968.16
2022-08-20T05:29:51.864Z,100979.56
2022-08-20T05:44:35.547Z,100973.63
2022-08-20T05:47:02.136Z,100974.28
2022-08-20T05:49:32.402Z,100973.63
2022-08-20T05:51:58.998Z,100973.63
2022-08-20T05:54:25.717Z,100966.44
2022-08-20T05:56:52.205Z,100968.38
2022-08-20T05:59:23.550Z,100974.94
2022-08-20T06:01:50.990Z,100980.19
2022-08-20T06:04:17.590Z,100983.59
2022-08-20T06:06:47.347Z,100986.13
2022-08-20T06:09:15.683Z,100982.94
2022-08-20T06:11:42.363Z,100989.28
2022-08-20T06:14:09.245Z,100991.00
2022-08-20T06:16:37.431Z,100999.84
2022-08-20T06:19:05.207Z,101006.00
2022-08-20T06:21:32.034Z,101000.25
2022-08-20T06:24:00.509Z,101001.09
2022-08-20T06:26:29.864Z,101005.56
2022-08-20T06:28:57.813Z,101007.69
2022-08-20T06:31:24.376Z,101017.22
2022-08-20T06:33:50.905Z,101009.56
2022-08-20T06:36:18.788Z,101017.38
2022-08-20T06:38:45.804Z,101014.22
2022-08-20T06:41:13.789Z,101020.31
2022-08-20T06:43:40.367Z,101017.13
2022-08-20T06:46:07.033Z,101015.66
2022-08-20T06:48:33.802Z,101013.72
2022-08-20T06:51:00.691Z,101024.53
2022-08-20T06:53:27.199Z,101016.47
2022-08-20T06:55:56.301Z,101025.56
2022-08-20T06:58:37.322Z,101023.47
2022-08-20T07:01:09.938Z,101027.06
2022-08-20T07:03:37.738Z,101026.63
2022-08-20T07:06:04.506Z,101028.72
2022-08-20T07:08:31.103Z,101029.97
2022-08-20T07:10:57.936Z,101022.34
2022-08-20T07:13:25.961Z,101027.38
2022-08-20T07:15:54.081Z,101035.84
2022-08-20T07:18:28.445Z,101029.66
2022-08-20T07:20:55.172Z,101039.78
2022-08-20T07:23:21.801Z,101045.09
2022-08-20T07:25:48.379Z,101049.75
2022-08-20T07:28:18.710Z,101048.47
2022-08-20T07:30:55.795Z,101054.84
2022-08-20T07:33:24.564Z,101058.03
2022-08-20T07:35:51.218Z,101065.69
2022-08-20T07:38:21.082Z,101066.50
2022-08-20T07:40:47.913Z,101064.38
2022-08-20T07:43:14.504Z,101063.13
2022-08-20T07:45:41.070Z,101061.19
2022-08-20T07:48:28.020Z,101060.56
2022-08-20T07:51:00.191Z,101058.88
2022-08-20T07:53:28.638Z,101064.38
2022-08-20T07:55:59.431Z,101056.13
2022-08-20T07:58:33.181Z,101056.75
2022-08-20T08:01:00.375Z,101055.47
2022-08-20T08:03:39.494Z,101059.09
2022-08-20T08:06:15.050Z,101060.53
2022-08-20T08:08:43.904Z,101065.22
2022-08-20T08:11:12.113Z,101070.31
2022-08-20T08:13:41.915Z,101073.22
2022-08-20T08:16:09.867Z,101072.34
2022-08-20T08:18:41.705Z,101078.63
2022-08-20T08:21:09.670Z,101077.53
2022-08-20T08:23:36.246Z,101077.09
2022-08-20T08:26:02.969Z,101085.38
2022-08-20T08:28:29.564Z,101084.06
2022-08-20T08:30:56.467Z,101082.53
2022-08-20T08:33:25.932Z,101086.16
2022-08-20T08:35:54.044Z,101087.84
2022-08-20T08:38:20.663Z,101084.88
2022-08-20T08:40:47.239Z,101089.09
2022-08-20T08:43:21.384Z,101086.91
2022-08-20T08:45:54.509Z,101086.47
2022-08-20T08:48:21.532Z,101085.78
2022-08-20T08:50:53.909Z,101088.69
2022-08-20T08:53:26.065Z,101095.06
2022-08-20T08:55:52.639Z,101085.94
2022-08-20T08:58:19.218Z,101098.22
2022-08-20T09:00:52.737Z,101091.44
2022-08-20T09:03:27.289Z,101098.66
2022-08-20T09:05:57.529Z,101099.72
2022-08-20T09:08:29.533Z,101091.84
2022-08-20T09:11:02.097Z,101095.44
2022-08-20T09:13:28.640Z,101096.28
2022-08-20T09:15:55.347Z,101096.47
2022-08-20T09:18:21.911Z,101096.00
2022-08-20T09:20:48.490Z,101101.06
2022-08-20T09:23:15.137Z,101108.66
2022-08-20T09:25:43.048Z,101097.63
2022-08-20T09:28:09.842Z,101108.66
2022-08-20T09:30:36.426Z,101103.38
2022-08-20T09:33:04.827Z,101107.41
2022-08-20T09:35:31.375Z,101103.59
2022-08-20T09:37:58.054Z,101098.94
2022-08-20T09:40:24.747Z,101095.91
2022-08-20T09:42:52.730Z,101096.34
2022-08-20T09:45:19.720Z,101098.63
2022-08-20T09:47:54.940Z,101096.25
2022-08-20T09:50:24.269Z,101101.31
2022-08-20T09:52:53.968Z,101101.31
2022-08-20T09:55:31.457Z,101103.00
2022-08-20T09:58:00.511Z,101097.50
2022-08-20T10:00:27.175Z,101098.97
2022-08-20T10:02:53.791Z,101098.50
2022-08-20T10:05:20.380Z,101097.19
2022-08-20T10:07:46.950Z,101099.03
2022-08-20T10:10:15.452Z,101096.19
2022-08-20T10:12:42.111Z,101102.91
2022-08-20T10:15:11.311Z,101106.50
2022-08-20T10:17:38.933Z,101105.19
2022-08-20T10:20:06.796Z,101106.25
2022-08-20T10:22:33.380Z,101103.28
2022-08-20T10:25:00.150Z,101106.88
2022-08-20T10:27:26.842Z,101112.78
2022-08-20T10:29:53.507Z,101110.28
2022-08-20T10:32:21.495Z,101108.56
2022-08-20T10:34:48.392Z,101113.25
2022-08-20T10:37:15.902Z,101107.72
2022-08-20T10:39:43.047Z,101105.56
2022-08-20T10:42:09.669Z,101114.28
2022-08-20T10:44:36.525Z,101113.97
2022-08-20T10:47:14.573Z,101119.03
2022-08-20T10:49:42.445Z,101107.97
2022-08-20T10:52:09.151Z,101112.66
2022-08-20T10:54:35.759Z,101106.44
2022-08-20T10:57:02.389Z,101108.72
2022-08-20T10:59:28.979Z,101116.81
2022-08-20T11:01:55.657Z,101115.09
2022-08-20T11:04:22.322Z,101103.22
2022-08-20T11:06:50.272Z,101107.44
2022-08-20T11:09:16.955Z,101124.41
2022-08-20T11:11:43.657Z,101124.88
2022-08-20T11:14:10.346Z,101129.78
2022-08-20T11:16:36.910Z,101131.53
2022-08-20T11:19:03.645Z,101134.56
2022-08-20T11:21:30.225Z,101135.63
2022-08-20T11:24:02.307Z,101133.53
2022-08-20T11:26:29.768Z,101134.03
2022-08-20T11:28:56.392Z,101131.13
2022-08-20T11:31:23.136Z,101139.88
2022-08-20T11:33:49.741Z,101137.34
2022-08-20T11:36:18.359Z,101144.31
2022-08-20T11:38:44.897Z,101145.56
2022-08-20T11:41:13.209Z,101136.63
2022-08-20T11:43:40.859Z,101134.72
2022-08-20T11:46:07.560Z,101138.34
2022-08-20T11:48:34.140Z,101138.97
2022-08-20T11:51:00.736Z,101138.72
2022-08-20T11:53:27.363Z,101142.31
2022-08-20T11:55:55.317Z,101146.59
2022-08-20T11:58:23.650Z,101140.38
2022-08-20T12:00:50.258Z,101142.31
2022-08-20T12:03:17.102Z,101136.53
2022-08-20T12:05:45.571Z,101145.44
2022-08-20T12:08:26.684Z,101144.38
2022-08-20T12:10:55.354Z,101143.75
2022-08-20T12:13:24.221Z,101141.47
2022-08-20T12:15:58.348Z,101144.22
2022-08-20T12:18:27.011Z,101140.00
2022-08-20T12:20:54.018Z,101134.03
2022-08-20T12:23:20.657Z,101137.91
2022-08-20T12:25:47.506Z,101146.19
2022-08-20T12:28:15.138Z,101136.19
2022-08-20T12:30:43.246Z,101140.66
2022-08-20T12:33:09.819Z,101145.56
2022-08-20T12:35:36.495Z,101142.78
2022-08-20T12:38:04.286Z,101147.25
2022-08-20T12:40:32.902Z,101148.31
2022-08-20T12:42:59.888Z,101146.03
2022-08-20T12:45:26.558Z,101147.56
2022-08-20T12:48:01.342Z,101149.22
2022-08-20T12:50:31.428Z,101134.19
2022-08-20T12:52:58.730Z,101140.16
2022-08-20T12:55:25.870Z,101144.47
2022-08-20T12:57:54.015Z,101145.53
2022-08-20T13:00:24.246Z,101146.16
2022-08-20T13:02:52.580Z,101146.16
2022-08-20T13:05:21.424Z,101154.88
2022-08-20T13:07:48.840Z,101146.59
2022-08-20T13:10:18.019Z,101151.06
2022-08-20T13:12:44.805Z,101156.56
2022-08-20T13:15:12.182Z,101157.03
2022-08-20T13:17:39.704Z,101153.22
2022-08-20T13:20:10.201Z,101155.97
2022-08-20T13:22:38.198Z,101150.00
2022-08-20T13:25:06.065Z,101147.44
2022-08-20T13:27:33.041Z,101152.13
2022-08-20T13:29:59.641Z,101154.28
2022-08-20T13:32:26.363Z,101149.22
2022-08-20T13:34:53.267Z,101154.75
2022-08-20T13:37:25.118Z,101158.56
2022-08-20T13:39:54.042Z,101159.84
2022-08-20T13:42:22.027Z,101154.56
2022-08-20T13:44:52.843Z,101144.13
2022-08-20T13:47:22.090Z,101149.44
2022-08-20T13:49:55.491Z,101146.47
2022-08-20T13:52:21.850Z,101143.69
2022-08-20T13:54:48.526Z,101143.06
2022-08-20T13:57:18.967Z,101132.88
2022-08-20T13:59:50.430Z,101124.81
2022-08-20T14:02:17.730Z,101129.72
2022-08-20T14:04:45.122Z,101125.03
2022-08-20T14:07:13.369Z,101125.91
2022-08-20T14:09:41.268Z,101130.09
2022-08-20T14:12:08.863Z,101129.22
2022-08-20T14:14:37.206Z,101132.78
2022-08-20T14:17:14.316Z,101138.72
2022-08-20T14:19:42.036Z,101132.94
2022-08-20T14:22:08.700Z,101126.56
2022-08-20T14:24:35.356Z,101122.16
2022-08-20T14:27:03.092Z,101131.28
2022-08-20T14:29:32.225Z,101136.81
2022-08-20T14:32:05.844Z,101139.09
2022-08-20T14:34:33.560Z,101148.63
2022-08-20T14:37:09.991Z,101149.84
2022-08-20T14:39:36.825Z,101148.94
2022-08-20T14:42:03.567Z,101148.91
2022-08-20T14:44:30.144Z,101152.66
2022-08-20T14:46:56.828Z,101147.91
2022-08-20T14:49:24.820Z,101154.22
2022-08-20T14:51:51.424Z,101150.50
2022-08-20T14:54:18.012Z,101158.72
2022-08-20T14:56:44.624Z,101155.72
2022-08-20T14:59:11.314Z,101155.72
2022-08-20T15:01:37.945Z,101151.03
2022-08-20T15:04:04.729Z,101141.66
2022-08-20T15:06:34.963Z,101137.00
2022-08-20T15:09:05.593Z,101131.47
2022-08-20T15:11:34.596Z,101133.97
2022-08-20T15:14:03.076Z,101134.59
2022-08-20T15:16:29.683Z,101132.69
2022-08-20T15:18:59.632Z,101135.22
2022-08-20T15:21:27.539Z,101142.19
2022-08-20T15:23:58.349Z,101139.44
2022-08-20T15:26:24.998Z,101146.88
2022-08-20T15:28:51.919Z,101147.50
2022-08-20T15:31:18.584Z,101149.44
2022-08-20T15:33:45.210Z,101150.03
2022-08-20T15:36:12.081Z,101140.66
2022-08-20T15:38:38.648Z,101139.81
2022-08-20T15:41:06.828Z,101143.19
2022-08-20T15:43:33.916Z,101142.34
2022-08-20T15:46:03.637Z,101150.66
2022-08-20T15:48:32.939Z,101143.41
2022-08-20T15:51:14.548Z,101143.41
2022-08-20T15:53:52.070Z,101146.19
2022-08-20T15:56:31.768Z,101152.78
2022-08-20T15:59:09.284Z,101142.78
2022-08-20T16:01:44.524Z,101149.66
2022-08-20T16:04:28.417Z,101156.25
2022-08-20T16:07:01.005Z,101139.91
2022-08-20T16:09:42.096Z,101143.75
2022-08-20T16:12:13.557Z,101133.97
2022-08-20T16:14:42.480Z,101142.53
2022-08-20T16:17:14.057Z,101140.59
2022-08-20T16:19:50.995Z,101138.06
2022-08-20T16:22:19.584Z,101140.81
2022-08-20T16:24:46.695Z,101139.13
2022-08-20T16:27:24.349Z,101144.66
2022-08-20T16:29:59.698Z,101144.66
2022-08-20T16:32:36.143Z,101152.09
2022-08-20T16:35:28.994Z,101158.25
2022-08-20T16:37:59.431Z,101166.78
2022-08-20T16:40:30.077Z,101168.47
2022-08-20T16:43:01.854Z,101173.16
2022-08-20T16:45:32.535Z,101174.47
2022-08-20T16:48:01.735Z,101170.00
2022-08-20T16:50:33.513Z,101169.38
2022-08-20T16:53:00.723Z,101166.03
2022-08-20T16:55:27.769Z,101168.16
2022-08-20T16:57:54.772Z,101166.50
2022-08-20T17:00:26.879Z,101175.84
2022-08-20T17:02:56.198Z,101170.78
2022-08-20T17:05:26.073Z,101167.41
2022-08-20T17:07:58.829Z,101169.53
2022-08-20T17:10:28.573Z,101172.78
2022-08-20T17:12:57.932Z,101170.47
2022-08-20T17:15:29.316Z,101173.72
2022-08-20T17:17:56.108Z,101171.38
2022-08-20T17:20:25.521Z,101188.03
2022-08-20T17:23:12.615Z,101181.78
2022-08-20T17:25:40.193Z,101190.78
2022-08-20T17:28:14.571Z,101197.94
2022-08-20T17:30:42.788Z,101200.81
2022-08-20T17:33:22.414Z,101201.34
2022-08-20T17:35:52.769Z,101195.63
2022-08-20T17:38:32.257Z,101196.34
2022-08-20T17:41:00.597Z,101205.31
2022-08-20T17:43:29.373Z,101204.53
2022-08-20T17:45:58.855Z,101201.19
2022-08-20T17:48:29.451Z,101210.97
2022-08-20T17:50:57.960Z,101205.66
2022-08-20T17:53:28.437Z,101208.00
2022-08-20T17:56:00.843Z,101198.28
2022-08-20T17:58:41.766Z,101203.16
2022-08-20T18:01:26.158Z,101207.22
2022-08-20T18:03:53.315Z,101206.13
2022-08-20T18:06:30.876Z,101211.63
2022-08-20T18:09:03.312Z,101208.88
2022-08-20T18:11:36.638Z,101209.72
2022-08-20T18:14:14.096Z,101219.09
2022-08-20T18:16:52.927Z,101213.56
2022-08-20T18:19:47.874Z,101218.25
2022-08-20T18:22:18.395Z,101222.25
2022-08-20T18:24:51.883Z,101220.59
2022-08-20T18:27:22.029Z,101219.94
2022-08-20T18:29:55.197Z,101214.66
2022-08-20T18:32:30.024Z,101218.69
2022-08-20T18:35:09.477Z,101222.50
2022-08-20T18:37:36.218Z,101222.50
2022-08-20T18:40:14.388Z,101219.16
2022-08-20T18:42:41.129Z,101219.56
2022-08-20T18:45:08.998Z,101213.19
2022-08-20T18:47:45.483Z,101217.88
2022-08-20T18:50:24.720Z,101227.22
2022-08-20T18:53:05.147Z,101227.63
2022-08-20T18:55:36.459Z,101228.88
2022-08-20T18:58:04.959Z,101227.44
2022-08-20T19:00:36.923Z,101226.78
2022-08-20T19:03:16.103Z,101225.09
2022-08-20T19:06:04.027Z,101220.00
2022-08-20T19:08:41.010Z,101225.97
2022-08-20T19:11:26.255Z,101232.53
2022-08-20T19:14:19.010Z,101232.75
2022-08-20T19:16:49.003Z,101232.13
2022-08-20T19:19:18.714Z,101231.47
2022-08-20T19:21:45.502Z,101234.47
2022-08-20T19:24:17.979Z,101231.91
2022-08-20T19:26:48.376Z,101232.13
2022-08-20T19:29:20.729Z,101234.88
2022-08-20T19:31:48.234Z,101235.31
2022-08-20T19:34:22.424Z,101234.47
2022-08-20T19:36:55.549Z,101231.91
2022-08-20T19:39:25.511Z,101231.91
2022-08-20T19:41:58.675Z,101231.09
2022-08-20T19:44:30.289Z,101229.41
2022-08-20T19:46:58.652Z,101237.66
2022-08-20T19:49:36.321Z,101234.91
2022-08-20T19:52:21.529Z,101233.22
2022-08-20T19:54:50.483Z,101236.81
2022-08-20T19:57:18.821Z,101237.88
2022-08-20T19:59:55.399Z,101237.25
2022-08-20T20:02:23.980Z,101237.25
2022-08-20T20:04:55.261Z,101235.56
2022-08-20T20:07:28.110Z,101238.31
2022-08-20T20:09:57.962Z,101240.00
2022-08-20T20:12:24.942Z,101243.81
2022-08-20T20:14:54.002Z,101242.13
2022-08-20T20:17:23.718Z,101232.16
2022-08-20T20:19:54.042Z,101243.16
2022-08-20T20:22:25.801Z,101238.75
2022-08-20T20:25:02.039Z,101237.91
2022-08-20T20:27:29.463Z,101244.25
2022-08-20T20:30:01.205Z,101244.25
2022-08-20T20:32:28.941Z,101243.41
2022-08-20T20:35:00.027Z,101240.84
2022-08-20T20:37:49.814Z,101240.84
2022-08-20T20:40:23.923Z,101245.31
2022-08-20T20:43:00.113Z,101242.56
2022-08-20T20:45:32.509Z,101238.09
2022-08-20T20:47:59.168Z,101245.50
2022-08-20T20:50:30.128Z,101240.84
2022-08-20T20:52:58.201Z,101245.50
2022-08-20T20:55:28.380Z,101245.50
2022-08-20T20:57:56.372Z,101234.69
2022-08-20T21:00:25.220Z,101246.81
2022-08-20T21:02:52.537Z,101243.19
2022-08-20T21:05:20.506Z,101238.75
2022-08-20T21:07:51.893Z,101245.09
2022-08-20T21:10:20.241Z,101246.16
2022-08-20T21:12:51.947Z,101244.25
2022-08-20T21:15:20.042Z,101240.03
2022-08-20T21:17:46.658Z,101244.69
2022-08-20T21:20:13.319Z,101243.84
2022-08-20T21:22:40.094Z,101244.69
2022-08-20T21:25:08.741Z,101241.06
2022-08-20T21:27:35.866Z,101246.78
2022-08-20T21:30:04.329Z,101239.56
2022-08-20T21:32:30.969Z,101244.28
2022-08-20T21:34:57.492Z,101244.28
2022-08-20T21:37:24.054Z,101241.72
2022-08-20T21:39:50.608Z,101241.72
2022-08-20T21:42:28.106Z,101246.38
2022-08-20T21:44:56.045Z,101252.94
2022-08-20T21:47:22.605Z,101243.00
2022-08-20T21:49:49.268Z,101235.78
2022-08-20T21:52:15.881Z,101233.03
2022-08-20T21:54:42.468Z,101237.69
2022-08-20T21:57:14.407Z,101234.94
2022-08-20T21:59:42.538Z,101236.84
2022-08-20T22:02:09.704Z,101227.75
2022-08-20T22:04:36.316Z,101228.78
2022-08-20T22:07:04.051Z,101223.50
2022-08-20T22:09:31.224Z,101221.81
2022-08-20T22:12:00.912Z,101219.06
2022-08-20T22:14:27.764Z,101222.88
2022-08-20T22:16:55.687Z,101212.91
2022-08-20T22:19:22.487Z,101216.75
2022-08-20T22:21:49.222Z,101212.91
2022-08-20T22:24:15.792Z,101218.41
2022-08-20T22:26:42.751Z,101214.00
2022-08-20T22:29:11.262Z,101210.38
2022-08-20T22:31:40.412Z,101204.88
2022-08-20T22:34:08.773Z,101205.72
2022-08-20T22:36:36.009Z,101207.84
2022-08-20T22:39:02.658Z,101216.94
2022-08-20T22:41:29.366Z,101212.28
2022-08-20T22:43:57.446Z,101207.84
2022-08-20T22:46:26.834Z,101213.34
2022-08-20T22:48:54.252Z,101200.63
2022-08-20T22:51:26.654Z,101207.00
2022-08-20T22:53:53.353Z,101212.72
2022-08-20T22:56:22.003Z,101215.47
2022-08-20T22:58:50.071Z,101217.38
2022-08-20T23:01:17.275Z,101227.53
2022-08-20T23:03:43.912Z,101221.38
2022-08-20T23:06:11.156Z,101223.53
2022-08-20T23:08:40.031Z,101218.03
2022-08-20T23:11:06.686Z,101226.47
2022-08-20T23:13:33.362Z,101223.94
2022-08-20T23:16:00.781Z,101220.56
2022-08-20T23:18:27.617Z,101223.31
2022-08-20T23:20:56.674Z,101216.28
2022-08-20T23:23:24.031Z,101222.00
2022-08-20T23:25:52.788Z,101224.53
2022-08-20T23:28:21.847Z,101222.00
2022-08-20T23:30:48.562Z,101224.13
2022-08-20T23:33:15.834Z,101228.97
2022-08-20T23:35:43.776Z,101230.25
2022-08-20T23:38:10.348Z,101225.19
2022-08-20T23:40:37.559Z,101230.03
2022-08-20T23:43:06.109Z,101223.06
2022-08-20T23:45:33.446Z,101231.53
2022-08-20T23:48:00.203Z,101230.25
2022-08-20T23:50:29.024Z,101223.47
2022-08-20T23:52:56.706Z,101237.00
2022-08-20T23:55:23.914Z,101235.72
2022-08-20T23:57:51.449Z,101235.31
